Weather at Nunukan Airport

Public forecast

Using degrees Celsius for public forecast. Weather courtesy of forecast.io.

Closest aviation weather report (METAR) to Nunukan Airport

Closest report is Tawau Airport, 29.1 nm (53.9 km) ENE.

2024/05/24 00:00 (retrieved 34 minutes ago)

WBKW 240000Z 26003KT 200V330 9999 FEW017 30/26 Q1009

Closest aviation forecast (TAF) to Nunukan Airport

Forecast is more than 6 hours old.

Closest forecast is Aden Adde International Airport, 4,339.2 nm (8,036.2 km) W.

2024/05/23 12:54 (retrieved 12 hours ago)

TAF TAF HCMM 231100Z 2312/2418 21013KT 9999 SCT024 PROB30 TEMPO 2314/2321 8000 -SHRA BKN023 BECMG 2402/2404 22008KT 9999 NSW BKN020 BECMG 2406/2409 23015KT SCT024